sensor_id;sensor_type;location;lat;lon;timestamp;P1;durP1;ratioP1;P2;durP2;ratioP2
59846;SDS011;45728;48.788;2.302;2023-02-13T00:01:40;31.05;;;15.23;;
59846;SDS011;45728;48.788;2.302;2023-02-13T00:04:06;32.28;;;26.42;;
59846;SDS011;45728;48.788;2.302;2023-02-13T00:06:32;33.33;;;24.90;;
59846;SDS011;45728;48.788;2.302;2023-02-13T00:08:59;31.45;;;14.30;;
59846;SDS011;45728;48.788;2.302;2023-02-13T00:11:25;31.60;;;14.05;;
59846;SDS011;45728;48.788;2.302;2023-02-13T00:13:51;30.10;;;14.20;;
59846;SDS011;45728;48.788;2.302;2023-02-13T00:16:17;32.28;;;25.40;;
59846;SDS011;45728;48.788;2.302;2023-02-13T00:18:43;31.10;;;25.42;;
59846;SDS011;45728;48.788;2.302;2023-02-13T00:21:10;31.42;;;14.55;;
59846;SDS011;45728;48.788;2.302;2023-02-13T00:23:37;32.65;;;25.40;;
59846;SDS011;45728;48.788;2.302;2023-02-13T00:26:05;30.15;;;15.13;;
59846;SDS011;45728;48.788;2.302;2023-02-13T00:28:33;26.23;;;13.15;;
59846;SDS011;45728;48.788;2.302;2023-02-13T00:31:07;30.48;;;13.23;;
59846;SDS011;45728;48.788;2.302;2023-02-13T00:33:37;32.08;;;26.02;;
59846;SDS011;45728;48.788;2.302;2023-02-13T00:36:05;30.63;;;13.52;;
59846;SDS011;45728;48.788;2.302;2023-02-13T00:38:33;31.20;;;25.60;;
59846;SDS011;45728;48.788;2.302;2023-02-13T00:40:59;34.83;;;15.30;;
59846;SDS011;45728;48.788;2.302;2023-02-13T00:43:25;32.05;;;15.43;;
59846;SDS011;45728;48.788;2.302;2023-02-13T00:45:51;30.70;;;24.85;;
59846;SDS011;45728;48.788;2.302;2023-02-13T00:48:18;30.40;;;13.30;;
59846;SDS011;45728;48.788;2.302;2023-02-13T00:50:45;29.33;;;15.23;;
59846;SDS011;45728;48.788;2.302;2023-02-13T00:53:12;33.00;;;26.20;;
59846;SDS011;45728;48.788;2.302;2023-02-13T00:55:38;31.67;;;25.00;;
59846;SDS011;45728;48.788;2.302;2023-02-13T00:58:04;29.92;;;24.23;;
59846;SDS011;45728;48.788;2.302;2023-02-13T01:00:30;29.02;;;13.68;;
59846;SDS011;45728;48.788;2.302;2023-02-13T01:02:56;30.05;;;14.07;;
59846;SDS011;45728;48.788;2.302;2023-02-13T01:05:22;29.17;;;14.32;;
59846;SDS011;45728;48.788;2.302;2023-02-13T01:07:49;31.95;;;24.33;;
59846;SDS011;45728;48.788;2.302;2023-02-13T01:10:16;33.38;;;15.32;;
59846;SDS011;45728;48.788;2.302;2023-02-13T01:12:42;30.92;;;14.80;;
59846;SDS011;45728;48.788;2.302;2023-02-13T01:15:08;27.77;;;14.23;;
59846;SDS011;45728;48.788;2.302;2023-02-13T01:17:34;30.35;;;23.85;;
59846;SDS011;45728;48.788;2.302;2023-02-13T01:20:00;29.05;;;14.13;;
59846;SDS011;45728;48.788;2.302;2023-02-13T01:22:26;30.52;;;25.25;;
59846;SDS011;45728;48.788;2.302;2023-02-13T01:24:52;27.27;;;13.20;;
59846;SDS011;45728;48.788;2.302;2023-02-13T01:27:19;33.58;;;26.33;;
59846;SDS011;45728;48.788;2.302;2023-02-13T01:29:45;26.88;;;13.65;;
59846;SDS011;45728;48.788;2.302;2023-02-13T01:32:11;32.90;;;14.55;;
59846;SDS011;45728;48.788;2.302;2023-02-13T01:34:37;29.63;;;24.95;;
59846;SDS011;45728;48.788;2.302;2023-02-13T01:37:03;30.42;;;14.18;;
59846;SDS011;45728;48.788;2.302;2023-02-13T01:39:29;32.17;;;14.65;;
59846;SDS011;45728;48.788;2.302;2023-02-13T01:41:55;31.02;;;24.65;;
59846;SDS011;45728;48.788;2.302;2023-02-13T01:47:23;30.60;;;13.75;;
59846;SDS011;45728;48.788;2.302;2023-02-13T01:50:00;32.75;;;14.20;;
59846;SDS011;45728;48.788;2.302;2023-02-13T01:52:30;30.50;;;14.88;;
59846;SDS011;45728;48.788;2.302;2023-02-13T01:54:57;31.85;;;26.30;;
59846;SDS011;45728;48.788;2.302;2023-02-13T01:57:23;29.23;;;13.80;;
59846;SDS011;45728;48.788;2.302;2023-02-13T02:00:05;32.58;;;17.40;;
59846;SDS011;45728;48.788;2.302;2023-02-13T02:02:35;30.55;;;14.23;;
59846;SDS011;45728;48.788;2.302;2023-02-13T02:05:03;31.02;;;15.48;;
59846;SDS011;45728;48.788;2.302;2023-02-13T02:07:31;30.45;;;15.63;;
59846;SDS011;45728;48.788;2.302;2023-02-13T02:09:59;34.10;;;16.33;;
59846;SDS011;45728;48.788;2.302;2023-02-13T02:12:49;28.80;;;13.60;;
59846;SDS011;45728;48.788;2.302;2023-02-13T02:15:22;26.17;;;14.25;;
59846;SDS011;45728;48.788;2.302;2023-02-13T02:17:49;33.50;;;28.13;;
59846;SDS011;45728;48.788;2.302;2023-02-13T02:28:53;31.85;;;15.18;;
59846;SDS011;45728;48.788;2.302;2023-02-13T02:31:42;36.05;;;28.60;;
59846;SDS011;45728;48.788;2.302;2023-02-13T02:47:59;34.50;;;16.00;;
59846;SDS011;45728;48.788;2.302;2023-02-13T03:01:20;42.03;;;18.80;;
59846;SDS011;45728;48.788;2.302;2023-02-13T03:04:11;39.50;;;19.00;;
59846;SDS011;45728;48.788;2.302;2023-02-13T03:07:10;35.53;;;16.88;;
59846;SDS011;45728;48.788;2.302;2023-02-13T03:09:40;36.72;;;16.48;;
59846;SDS011;45728;48.788;2.302;2023-02-13T03:12:38;35.17;;;16.75;;
59846;SDS011;45728;48.788;2.302;2023-02-13T03:15:28;33.25;;;16.30;;
59846;SDS011;45728;48.788;2.302;2023-02-13T03:17:55;35.15;;;17.15;;
59846;SDS011;45728;48.788;2.302;2023-02-13T03:20:45;33.85;;;17.27;;
59846;SDS011;45728;48.788;2.302;2023-02-13T03:23:54;37.53;;;17.45;;
59846;SDS011;45728;48.788;2.302;2023-02-13T03:26:35;37.22;;;18.27;;
59846;SDS011;45728;48.788;2.302;2023-02-13T03:29:19;37.25;;;17.20;;
59846;SDS011;45728;48.788;2.302;2023-02-13T03:35:04;44.30;;;18.77;;
59846;SDS011;45728;48.788;2.302;2023-02-13T03:38:14;45.85;;;20.77;;
59846;SDS011;45728;48.788;2.302;2023-02-13T03:41:20;49.40;;;20.42;;
59846;SDS011;45728;48.788;2.302;2023-02-13T03:46:27;52.10;;;21.30;;
59846;SDS011;45728;48.788;2.302;2023-02-13T03:48:57;41.13;;;19.58;;
59846;SDS011;45728;48.788;2.302;2023-02-13T03:52:29;44.47;;;18.58;;
59846;SDS011;45728;48.788;2.302;2023-02-13T03:57:26;39.63;;;18.57;;
59846;SDS011;45728;48.788;2.302;2023-02-13T04:00:12;44.60;;;18.75;;
59846;SDS011;45728;48.788;2.302;2023-02-13T04:02:44;45.80;;;22.13;;
59846;SDS011;45728;48.788;2.302;2023-02-13T04:05:19;44.42;;;34.13;;
59846;SDS011;45728;48.788;2.302;2023-02-13T04:07:47;42.72;;;17.50;;
59846;SDS011;45728;48.788;2.302;2023-02-13T04:10:14;41.28;;;17.95;;
59846;SDS011;45728;48.788;2.302;2023-02-13T04:15:15;39.67;;;18.27;;
59846;SDS011;45728;48.788;2.302;2023-02-13T04:17:48;37.55;;;18.05;;
59846;SDS011;45728;48.788;2.302;2023-02-13T04:20:19;36.67;;;17.75;;
59846;SDS011;45728;48.788;2.302;2023-02-13T04:22:46;47.10;;;20.15;;
59846;SDS011;45728;48.788;2.302;2023-02-13T04:25:13;41.83;;;31.95;;
59846;SDS011;45728;48.788;2.302;2023-02-13T04:27:41;35.80;;;16.60;;
59846;SDS011;45728;48.788;2.302;2023-02-13T04:30:07;40.28;;;17.58;;
59846;SDS011;45728;48.788;2.302;2023-02-13T04:32:34;38.90;;;16.25;;
59846;SDS011;45728;48.788;2.302;2023-02-13T04:35:00;43.75;;;18.05;;
59846;SDS011;45728;48.788;2.302;2023-02-13T04:37:26;40.63;;;18.50;;
59846;SDS011;45728;48.788;2.302;2023-02-13T04:39:52;35.80;;;18.45;;
59846;SDS011;45728;48.788;2.302;2023-02-13T04:42:18;34.33;;;18.23;;
59846;SDS011;45728;48.788;2.302;2023-02-13T04:44:44;33.83;;;16.27;;
59846;SDS011;45728;48.788;2.302;2023-02-13T04:47:10;33.75;;;16.60;;
59846;SDS011;45728;48.788;2.302;2023-02-13T04:49:37;40.65;;;18.13;;
59846;SDS011;45728;48.788;2.302;2023-02-13T04:52:03;37.63;;;19.92;;
59846;SDS011;45728;48.788;2.302;2023-02-13T04:54:29;37.70;;;18.25;;
59846;SDS011;45728;48.788;2.302;2023-02-13T04:56:55;36.40;;;17.65;;
59846;SDS011;45728;48.788;2.302;2023-02-13T04:59:21;37.85;;;18.02;;
59846;SDS011;45728;48.788;2.302;2023-02-13T05:01:47;36.15;;;17.30;;
59846;SDS011;45728;48.788;2.302;2023-02-13T05:04:13;38.90;;;16.65;;
59846;SDS011;45728;48.788;2.302;2023-02-13T05:06:40;38.72;;;17.98;;
59846;SDS011;45728;48.788;2.302;2023-02-13T05:09:07;40.22;;;17.92;;
59846;SDS011;45728;48.788;2.302;2023-02-13T05:11:34;38.50;;;16.75;;
59846;SDS011;45728;48.788;2.302;2023-02-13T05:14:00;40.50;;;18.85;;
59846;SDS011;45728;48.788;2.302;2023-02-13T05:16:26;44.67;;;20.15;;
59846;SDS011;45728;48.788;2.302;2023-02-13T05:18:52;38.97;;;17.17;;
59846;SDS011;45728;48.788;2.302;2023-02-13T05:21:19;35.08;;;19.30;;
59846;SDS011;45728;48.788;2.302;2023-02-13T05:24:05;40.03;;;18.25;;
59846;SDS011;45728;48.788;2.302;2023-02-13T05:26:31;37.42;;;20.00;;
59846;SDS011;45728;48.788;2.302;2023-02-13T05:28:57;38.38;;;19.20;;
59846;SDS011;45728;48.788;2.302;2023-02-13T05:31:41;37.08;;;17.77;;
59846;SDS011;45728;48.788;2.302;2023-02-13T05:34:07;41.33;;;19.25;;
59846;SDS011;45728;48.788;2.302;2023-02-13T05:36:33;38.70;;;17.25;;
59846;SDS011;45728;48.788;2.302;2023-02-13T05:39:00;40.13;;;19.13;;
59846;SDS011;45728;48.788;2.302;2023-02-13T05:41:26;40.75;;;18.20;;
59846;SDS011;45728;48.788;2.302;2023-02-13T05:43:52;37.17;;;17.90;;
59846;SDS011;45728;48.788;2.302;2023-02-13T05:46:18;43.05;;;18.33;;
59846;SDS011;45728;48.788;2.302;2023-02-13T05:48:44;49.67;;;21.60;;
59846;SDS011;45728;48.788;2.302;2023-02-13T05:51:10;46.85;;;19.20;;
59846;SDS011;45728;48.788;2.302;2023-02-13T05:53:36;40.42;;;20.20;;
59846;SDS011;45728;48.788;2.302;2023-02-13T05:56:03;38.80;;;19.10;;
59846;SDS011;45728;48.788;2.302;2023-02-13T05:58:30;42.47;;;18.92;;
59846;SDS011;45728;48.788;2.302;2023-02-13T06:00:57;44.88;;;18.92;;
59846;SDS011;45728;48.788;2.302;2023-02-13T06:03:24;39.85;;;18.17;;
59846;SDS011;45728;48.788;2.302;2023-02-13T06:05:51;40.38;;;18.30;;
59846;SDS011;45728;48.788;2.302;2023-02-13T06:08:18;41.25;;;18.83;;
59846;SDS011;45728;48.788;2.302;2023-02-13T06:10:45;35.78;;;17.17;;
59846;SDS011;45728;48.788;2.302;2023-02-13T06:13:12;40.08;;;17.27;;
59846;SDS011;45728;48.788;2.302;2023-02-13T06:15:38;42.13;;;18.98;;
59846;SDS011;45728;48.788;2.302;2023-02-13T06:18:05;37.60;;;17.83;;
59846;SDS011;45728;48.788;2.302;2023-02-13T06:20:31;42.72;;;20.55;;
59846;SDS011;45728;48.788;2.302;2023-02-13T06:22:58;44.58;;;19.35;;
59846;SDS011;45728;48.788;2.302;2023-02-13T06:25:24;41.42;;;31.52;;
59846;SDS011;45728;48.788;2.302;2023-02-13T06:27:50;39.90;;;18.42;;
59846;SDS011;45728;48.788;2.302;2023-02-13T06:30:16;47.28;;;19.45;;
59846;SDS011;45728;48.788;2.302;2023-02-13T06:32:43;35.15;;;16.95;;
59846;SDS011;45728;48.788;2.302;2023-02-13T06:35:11;36.08;;;17.92;;
59846;SDS011;45728;48.788;2.302;2023-02-13T06:37:38;39.72;;;17.45;;
59846;SDS011;45728;48.788;2.302;2023-02-13T06:40:05;45.13;;;20.42;;
59846;SDS011;45728;48.788;2.302;2023-02-13T06:42:32;37.90;;;18.67;;
59846;SDS011;45728;48.788;2.302;2023-02-13T06:44:58;40.55;;;18.33;;
59846;SDS011;45728;48.788;2.302;2023-02-13T06:47:24;38.22;;;18.30;;
59846;SDS011;45728;48.788;2.302;2023-02-13T06:49:50;39.03;;;18.00;;
59846;SDS011;45728;48.788;2.302;2023-02-13T06:52:16;40.15;;;17.90;;
59846;SDS011;45728;48.788;2.302;2023-02-13T06:54:42;37.42;;;17.35;;
59846;SDS011;45728;48.788;2.302;2023-02-13T06:57:08;39.70;;;17.55;;
59846;SDS011;45728;48.788;2.302;2023-02-13T06:59:34;41.78;;;19.73;;
59846;SDS011;45728;48.788;2.302;2023-02-13T07:02:00;41.17;;;18.38;;
59846;SDS011;45728;48.788;2.302;2023-02-13T07:04:26;39.53;;;17.35;;
59846;SDS011;45728;48.788;2.302;2023-02-13T07:06:53;38.97;;;17.58;;
59846;SDS011;45728;48.788;2.302;2023-02-13T07:09:20;42.30;;;19.00;;
59846;SDS011;45728;48.788;2.302;2023-02-13T07:11:46;44.15;;;18.67;;
59846;SDS011;45728;48.788;2.302;2023-02-13T07:14:12;40.30;;;20.65;;
59846;SDS011;45728;48.788;2.302;2023-02-13T07:16:38;40.83;;;18.27;;
59846;SDS011;45728;48.788;2.302;2023-02-13T07:19:04;44.72;;;19.50;;
59846;SDS011;45728;48.788;2.302;2023-02-13T07:21:30;43.58;;;19.20;;
59846;SDS011;45728;48.788;2.302;2023-02-13T07:23:56;40.78;;;18.88;;
59846;SDS011;45728;48.788;2.302;2023-02-13T07:26:23;43.53;;;18.25;;
59846;SDS011;45728;48.788;2.302;2023-02-13T07:28:51;36.45;;;17.73;;
59846;SDS011;45728;48.788;2.302;2023-02-13T07:31:17;42.58;;;18.95;;
59846;SDS011;45728;48.788;2.302;2023-02-13T07:33:43;43.28;;;18.10;;
59846;SDS011;45728;48.788;2.302;2023-02-13T07:36:12;51.25;;;19.10;;
59846;SDS011;45728;48.788;2.302;2023-02-13T07:38:38;42.05;;;19.15;;
59846;SDS011;45728;48.788;2.302;2023-02-13T07:41:04;42.63;;;19.38;;
59846;SDS011;45728;48.788;2.302;2023-02-13T07:43:30;45.95;;;19.33;;
59846;SDS011;45728;48.788;2.302;2023-02-13T07:45:57;38.20;;;18.85;;
59846;SDS011;45728;48.788;2.302;2023-02-13T07:48:24;54.92;;;37.08;;
59846;SDS011;45728;48.788;2.302;2023-02-13T07:50:54;48.10;;;20.45;;
59846;SDS011;45728;48.788;2.302;2023-02-13T07:53:25;46.60;;;21.27;;
59846;SDS011;45728;48.788;2.302;2023-02-13T07:55:51;45.55;;;20.02;;
59846;SDS011;45728;48.788;2.302;2023-02-13T07:58:17;50.08;;;34.15;;
59846;SDS011;45728;48.788;2.302;2023-02-13T08:00:43;42.28;;;18.80;;
59846;SDS011;45728;48.788;2.302;2023-02-13T08:03:09;48.10;;;19.45;;
59846;SDS011;45728;48.788;2.302;2023-02-13T08:05:35;43.58;;;21.08;;
59846;SDS011;45728;48.788;2.302;2023-02-13T08:08:02;49.53;;;21.83;;
59846;SDS011;45728;48.788;2.302;2023-02-13T08:10:28;45.10;;;20.63;;
59846;SDS011;45728;48.788;2.302;2023-02-13T08:13:12;45.97;;;19.60;;
59846;SDS011;45728;48.788;2.302;2023-02-13T08:15:40;47.42;;;19.48;;
59846;SDS011;45728;48.788;2.302;2023-02-13T08:18:09;45.60;;;19.02;;
59846;SDS011;45728;48.788;2.302;2023-02-13T08:20:35;46.53;;;18.38;;
59846;SDS011;45728;48.788;2.302;2023-02-13T08:23:02;41.88;;;17.52;;
59846;SDS011;45728;48.788;2.302;2023-02-13T08:25:29;44.63;;;19.02;;
59846;SDS011;45728;48.788;2.302;2023-02-13T08:27:56;41.13;;;19.73;;
59846;SDS011;45728;48.788;2.302;2023-02-13T08:30:22;48.15;;;20.13;;
59846;SDS011;45728;48.788;2.302;2023-02-13T08:32:48;45.47;;;21.20;;
59846;SDS011;45728;48.788;2.302;2023-02-13T08:35:14;55.22;;;38.75;;
59846;SDS011;45728;48.788;2.302;2023-02-13T08:37:40;46.40;;;20.55;;
59846;SDS011;45728;48.788;2.302;2023-02-13T08:40:06;48.78;;;21.23;;
59846;SDS011;45728;48.788;2.302;2023-02-13T08:42:36;52.92;;;38.05;;
59846;SDS011;45728;48.788;2.302;2023-02-13T08:45:03;55.22;;;38.25;;
59846;SDS011;45728;48.788;2.302;2023-02-13T08:47:30;49.50;;;20.15;;
59846;SDS011;45728;48.788;2.302;2023-02-13T08:49:57;51.75;;;38.38;;
59846;SDS011;45728;48.788;2.302;2023-02-13T08:52:23;58.78;;;39.53;;
59846;SDS011;45728;48.788;2.302;2023-02-13T08:54:49;54.25;;;37.85;;
59846;SDS011;45728;48.788;2.302;2023-02-13T08:57:15;49.00;;;21.77;;
59846;SDS011;45728;48.788;2.302;2023-02-13T08:59:41;48.72;;;22.73;;
59846;SDS011;45728;48.788;2.302;2023-02-13T09:02:09;53.35;;;37.78;;
59846;SDS011;45728;48.788;2.302;2023-02-13T09:04:36;53.78;;;21.05;;
59846;SDS011;45728;48.788;2.302;2023-02-13T09:07:02;49.90;;;35.63;;
59846;SDS011;45728;48.788;2.302;2023-02-13T09:09:28;52.33;;;38.30;;
59846;SDS011;45728;48.788;2.302;2023-02-13T09:11:54;52.78;;;38.40;;
59846;SDS011;45728;48.788;2.302;2023-02-13T09:14:25;50.47;;;38.25;;
59846;SDS011;45728;48.788;2.302;2023-02-13T09:16:51;53.40;;;39.03;;
59846;SDS011;45728;48.788;2.302;2023-02-13T09:19:17;51.72;;;39.00;;
59846;SDS011;45728;48.788;2.302;2023-02-13T09:21:43;53.75;;;38.13;;
59846;SDS011;45728;48.788;2.302;2023-02-13T09:24:09;55.83;;;38.15;;
59846;SDS011;45728;48.788;2.302;2023-02-13T09:26:35;53.05;;;36.88;;
59846;SDS011;45728;48.788;2.302;2023-02-13T09:29:02;62.03;;;41.28;;
59846;SDS011;45728;48.788;2.302;2023-02-13T09:31:28;49.08;;;36.92;;
59846;SDS011;45728;48.788;2.302;2023-02-13T09:33:54;53.22;;;37.38;;
59846;SDS011;45728;48.788;2.302;2023-02-13T09:36:21;49.00;;;36.58;;
59846;SDS011;45728;48.788;2.302;2023-02-13T09:38:53;47.00;;;35.10;;
59846;SDS011;45728;48.788;2.302;2023-02-13T09:51:40;40.60;;;31.95;;
59846;SDS011;45728;48.788;2.302;2023-02-13T09:54:07;38.38;;;29.13;;
59846;SDS011;45728;48.788;2.302;2023-02-13T09:56:46;33.63;;;27.05;;
59846;SDS011;45728;48.788;2.302;2023-02-13T09:59:33;35.92;;;27.75;;
59846;SDS011;45728;48.788;2.302;2023-02-13T10:07:52;37.40;;;28.88;;
59846;SDS011;45728;48.788;2.302;2023-02-13T10:10:29;34.03;;;26.90;;
59846;SDS011;45728;48.788;2.302;2023-02-13T10:18:03;31.60;;;25.80;;
59846;SDS011;45728;48.788;2.302;2023-02-13T10:20:44;32.92;;;25.77;;
59846;SDS011;45728;48.788;2.302;2023-02-13T10:28:14;31.25;;;25.55;;
59846;SDS011;45728;48.788;2.302;2023-02-13T10:30:50;32.95;;;26.00;;
59846;SDS011;45728;48.788;2.302;2023-02-13T10:33:21;30.95;;;25.33;;
59846;SDS011;45728;48.788;2.302;2023-02-13T10:36:11;30.73;;;25.58;;
59846;SDS011;45728;48.788;2.302;2023-02-13T10:38:44;30.27;;;25.63;;
59846;SDS011;45728;48.788;2.302;2023-02-13T10:49:56;31.33;;;26.00;;
59846;SDS011;45728;48.788;2.302;2023-02-13T11:03:14;33.70;;;24.92;;
59846;SDS011;45728;48.788;2.302;2023-02-13T11:05:47;33.35;;;26.00;;
59846;SDS011;45728;48.788;2.302;2023-02-13T11:08:20;33.08;;;26.63;;
59846;SDS011;45728;48.788;2.302;2023-02-13T11:10:57;32.55;;;26.90;;
59846;SDS011;45728;48.788;2.302;2023-02-13T11:13:25;32.95;;;27.38;;
59846;SDS011;45728;48.788;2.302;2023-02-13T11:18:24;37.63;;;29.80;;
59846;SDS011;45728;48.788;2.302;2023-02-13T11:23:53;37.42;;;29.77;;
59846;SDS011;45728;48.788;2.302;2023-02-13T11:26:39;32.42;;;26.73;;
59846;SDS011;45728;48.788;2.302;2023-02-13T11:29:15;36.05;;;26.48;;
59846;SDS011;45728;48.788;2.302;2023-02-13T11:34:39;32.35;;;24.92;;
59846;SDS011;45728;48.788;2.302;2023-02-13T11:39:38;35.65;;;27.05;;
59846;SDS011;45728;48.788;2.302;2023-02-13T11:42:51;32.95;;;26.70;;
59846;SDS011;45728;48.788;2.302;2023-02-13T11:44:56;35.45;;;25.80;;
59846;SDS011;45728;48.788;2.302;2023-02-13T11:47:40;31.15;;;26.60;;
59846;SDS011;45728;48.788;2.302;2023-02-13T11:52:58;36.17;;;29.08;;
59846;SDS011;45728;48.788;2.302;2023-02-13T11:55:34;32.42;;;25.23;;
59846;SDS011;45728;48.788;2.302;2023-02-13T12:00:40;31.73;;;25.38;;
59846;SDS011;45728;48.788;2.302;2023-02-13T12:06:01;40.80;;;32.22;;
59846;SDS011;45728;48.788;2.302;2023-02-13T12:08:38;35.22;;;26.45;;
59846;SDS011;45728;48.788;2.302;2023-02-13T12:11:13;33.22;;;27.17;;
59846;SDS011;45728;48.788;2.302;2023-02-13T12:13:41;34.60;;;27.27;;
59846;SDS011;45728;48.788;2.302;2023-02-13T12:16:29;34.13;;;26.40;;
59846;SDS011;45728;48.788;2.302;2023-02-13T12:19:11;33.72;;;25.52;;
59846;SDS011;45728;48.788;2.302;2023-02-13T12:24:33;35.25;;;26.23;;
59846;SDS011;45728;48.788;2.302;2023-02-13T12:36:14;33.60;;;27.65;;
59846;SDS011;45728;48.788;2.302;2023-02-13T12:38:54;33.08;;;28.75;;
59846;SDS011;45728;48.788;2.302;2023-02-13T12:41:28;42.10;;;31.42;;
59846;SDS011;45728;48.788;2.302;2023-02-13T13:00:16;35.63;;;28.50;;
59846;SDS011;45728;48.788;2.302;2023-02-13T13:05:59;32.72;;;25.92;;
59846;SDS011;45728;48.788;2.302;2023-02-13T13:08:27;35.55;;;27.85;;
59846;SDS011;45728;48.788;2.302;2023-02-13T13:19:21;36.53;;;27.70;;
59846;SDS011;45728;48.788;2.302;2023-02-13T13:21:54;34.97;;;27.00;;
59846;SDS011;45728;48.788;2.302;2023-02-13T13:27:03;32.55;;;25.15;;
59846;SDS011;45728;48.788;2.302;2023-02-13T13:29:41;32.80;;;25.92;;
59846;SDS011;45728;48.788;2.302;2023-02-13T13:32:13;32.33;;;26.23;;
59846;SDS011;45728;48.788;2.302;2023-02-13T13:34:45;31.25;;;25.27;;
59846;SDS011;45728;48.788;2.302;2023-02-13T13:37:15;32.97;;;26.13;;
59846;SDS011;45728;48.788;2.302;2023-02-13T13:50:21;28.90;;;24.00;;
59846;SDS011;45728;48.788;2.302;2023-02-13T14:03:40;28.73;;;23.13;;
59846;SDS011;45728;48.788;2.302;2023-02-13T14:06:11;32.22;;;24.92;;
59846;SDS011;45728;48.788;2.302;2023-02-13T14:11:05;29.55;;;24.10;;
59846;SDS011;45728;48.788;2.302;2023-02-13T14:13:33;31.75;;;24.63;;
59846;SDS011;45728;48.788;2.302;2023-02-13T14:16:01;32.47;;;24.92;;
59846;SDS011;45728;48.788;2.302;2023-02-13T14:18:28;28.05;;;22.35;;
59846;SDS011;45728;48.788;2.302;2023-02-13T14:20:59;39.88;;;29.58;;
59846;SDS011;45728;48.788;2.302;2023-02-13T14:31:36;29.92;;;24.88;;
59846;SDS011;45728;48.788;2.302;2023-02-13T14:34:16;30.48;;;24.23;;
59846;SDS011;45728;48.788;2.302;2023-02-13T14:36:57;30.83;;;23.38;;
59846;SDS011;45728;48.788;2.302;2023-02-13T14:39:41;28.95;;;22.55;;
59846;SDS011;45728;48.788;2.302;2023-02-13T14:42:26;27.80;;;21.88;;
59846;SDS011;45728;48.788;2.302;2023-02-13T14:44:57;29.98;;;21.80;;
59846;SDS011;45728;48.788;2.302;2023-02-13T14:47:39;29.70;;;22.70;;
59846;SDS011;45728;48.788;2.302;2023-02-13T14:50:44;27.08;;;22.25;;
59846;SDS011;45728;48.788;2.302;2023-02-13T14:53:06;26.00;;;22.55;;
59846;SDS011;45728;48.788;2.302;2023-02-13T14:55:40;26.75;;;21.75;;
59846;SDS011;45728;48.788;2.302;2023-02-13T14:58:14;27.85;;;21.02;;
59846;SDS011;45728;48.788;2.302;2023-02-13T15:05:53;24.17;;;20.27;;
59846;SDS011;45728;48.788;2.302;2023-02-13T15:08:25;28.02;;;20.40;;
59846;SDS011;45728;48.788;2.302;2023-02-13T15:10:54;25.45;;;19.85;;
59846;SDS011;45728;48.788;2.302;2023-02-13T15:13:22;22.77;;;19.08;;
59846;SDS011;45728;48.788;2.302;2023-02-13T15:15:58;24.45;;;19.98;;
59846;SDS011;45728;48.788;2.302;2023-02-13T15:18:26;24.92;;;19.88;;
59846;SDS011;45728;48.788;2.302;2023-02-13T15:20:59;23.80;;;20.60;;
59846;SDS011;45728;48.788;2.302;2023-02-13T15:23:27;26.73;;;20.55;;
59846;SDS011;45728;48.788;2.302;2023-02-13T15:25:59;22.97;;;18.97;;
59846;SDS011;45728;48.788;2.302;2023-02-13T15:28:27;26.77;;;19.88;;
59846;SDS011;45728;48.788;2.302;2023-02-13T15:30:55;23.90;;;19.77;;
59846;SDS011;45728;48.788;2.302;2023-02-13T15:33:23;22.52;;;18.20;;
59846;SDS011;45728;48.788;2.302;2023-02-13T15:35:58;23.00;;;18.25;;
59846;SDS011;45728;48.788;2.302;2023-02-13T15:38:30;22.95;;;18.77;;
59846;SDS011;45728;48.788;2.302;2023-02-13T15:41:32;21.27;;;17.48;;
59846;SDS011;45728;48.788;2.302;2023-02-13T15:43:55;24.92;;;20.00;;
59846;SDS011;45728;48.788;2.302;2023-02-13T15:46:24;23.67;;;19.08;;
59846;SDS011;45728;48.788;2.302;2023-02-13T15:48:56;24.98;;;19.92;;
59846;SDS011;45728;48.788;2.302;2023-02-13T15:51:26;23.17;;;18.85;;
59846;SDS011;45728;48.788;2.302;2023-02-13T15:53:55;26.27;;;20.73;;
59846;SDS011;45728;48.788;2.302;2023-02-13T15:56:23;28.20;;;18.98;;
59846;SDS011;45728;48.788;2.302;2023-02-13T15:58:49;25.52;;;19.77;;
59846;SDS011;45728;48.788;2.302;2023-02-13T16:01:16;24.50;;;19.80;;
59846;SDS011;45728;48.788;2.302;2023-02-13T16:03:44;25.17;;;20.23;;
59846;SDS011;45728;48.788;2.302;2023-02-13T16:06:16;25.85;;;20.48;;
59846;SDS011;45728;48.788;2.302;2023-02-13T16:08:49;30.75;;;21.13;;
59846;SDS011;45728;48.788;2.302;2023-02-13T16:16:23;24.98;;;19.80;;
59846;SDS011;45728;48.788;2.302;2023-02-13T16:18:50;25.00;;;19.15;;
59846;SDS011;45728;48.788;2.302;2023-02-13T16:21:21;27.88;;;21.63;;
59846;SDS011;45728;48.788;2.302;2023-02-13T16:23:49;29.92;;;21.48;;
59846;SDS011;45728;48.788;2.302;2023-02-13T16:26:20;33.42;;;21.27;;
59846;SDS011;45728;48.788;2.302;2023-02-13T16:28:46;25.52;;;19.92;;
59846;SDS011;45728;48.788;2.302;2023-02-13T16:31:14;29.67;;;22.52;;
59846;SDS011;45728;48.788;2.302;2023-02-13T16:33:42;28.40;;;21.45;;
59846;SDS011;45728;48.788;2.302;2023-02-13T16:38:36;27.55;;;21.75;;
59846;SDS011;45728;48.788;2.302;2023-02-13T16:41:04;29.15;;;22.40;;
59846;SDS011;45728;48.788;2.302;2023-02-13T16:43:53;24.88;;;20.58;;
59846;SDS011;45728;48.788;2.302;2023-02-13T16:51:28;27.95;;;21.90;;
59846;SDS011;45728;48.788;2.302;2023-02-13T16:56:40;28.23;;;22.50;;
59846;SDS011;45728;48.788;2.302;2023-02-13T17:04:41;79.35;;;54.45;;
59846;SDS011;45728;48.788;2.302;2023-02-13T17:07:12;52.25;;;38.22;;
59846;SDS011;45728;48.788;2.302;2023-02-13T17:09:40;63.03;;;44.38;;
59846;SDS011;45728;48.788;2.302;2023-02-13T17:12:13;28.40;;;22.73;;
59846;SDS011;45728;48.788;2.302;2023-02-13T17:14:42;32.08;;;26.05;;
59846;SDS011;45728;48.788;2.302;2023-02-13T17:17:09;29.95;;;23.80;;
59846;SDS011;45728;48.788;2.302;2023-02-13T17:19:37;27.13;;;22.38;;
59846;SDS011;45728;48.788;2.302;2023-02-13T17:22:03;33.75;;;23.83;;
59846;SDS011;45728;48.788;2.302;2023-02-13T17:24:30;29.23;;;23.13;;
59846;SDS011;45728;48.788;2.302;2023-02-13T17:26:56;27.80;;;23.00;;
59846;SDS011;45728;48.788;2.302;2023-02-13T17:29:22;32.58;;;22.92;;
59846;SDS011;45728;48.788;2.302;2023-02-13T17:31:49;30.73;;;22.90;;
59846;SDS011;45728;48.788;2.302;2023-02-13T17:34:19;31.08;;;22.05;;
59846;SDS011;45728;48.788;2.302;2023-02-13T17:36:45;33.10;;;24.15;;
59846;SDS011;45728;48.788;2.302;2023-02-13T17:39:11;32.20;;;23.48;;
59846;SDS011;45728;48.788;2.302;2023-02-13T17:41:37;31.40;;;23.05;;
59846;SDS011;45728;48.788;2.302;2023-02-13T17:44:08;29.73;;;22.45;;
59846;SDS011;45728;48.788;2.302;2023-02-13T17:46:37;31.35;;;23.83;;
59846;SDS011;45728;48.788;2.302;2023-02-13T17:49:04;36.33;;;24.38;;
59846;SDS011;45728;48.788;2.302;2023-02-13T17:51:30;36.47;;;25.60;;
59846;SDS011;45728;48.788;2.302;2023-02-13T17:53:57;32.40;;;23.55;;
59846;SDS011;45728;48.788;2.302;2023-02-13T17:56:23;38.95;;;27.30;;
59846;SDS011;45728;48.788;2.302;2023-02-13T17:58:49;33.65;;;26.10;;
59846;SDS011;45728;48.788;2.302;2023-02-13T18:01:15;35.40;;;26.38;;
59846;SDS011;45728;48.788;2.302;2023-02-13T18:03:41;35.35;;;26.50;;
59846;SDS011;45728;48.788;2.302;2023-02-13T18:06:10;35.25;;;25.45;;
59846;SDS011;45728;48.788;2.302;2023-02-13T18:11:08;34.97;;;25.55;;
59846;SDS011;45728;48.788;2.302;2023-02-13T18:13:35;32.30;;;25.27;;